createdAt,value
2023-11-25T00:01:07.425Z,10.60
2023-11-25T00:02:20.076Z,11.40
2023-11-25T00:03:27.614Z,7.70
2023-11-25T00:04:35.189Z,7.60
2023-11-25T00:05:42.116Z,8.70
2023-11-25T00:06:50.404Z,8.40
2023-11-25T00:07:57.236Z,7.70
2023-11-25T00:09:05.581Z,9.30
2023-11-25T00:10:14.898Z,9.90
2023-11-25T00:11:28.223Z,7.70
2023-11-25T00:12:37.918Z,8.30
2023-11-25T00:13:46.619Z,7.50
2023-11-25T00:14:53.375Z,8.40
2023-11-25T00:16:00.417Z,7.20
2023-11-25T00:17:07.174Z,7.70
2023-11-25T00:18:14.498Z,6.30
2023-11-25T00:19:20.962Z,6.60
2023-11-25T00:20:28.519Z,6.20
2023-11-25T00:21:34.768Z,8.00
2023-11-25T00:22:41.422Z,8.40
2023-11-25T00:23:49.914Z,8.80
2023-11-25T00:24:57.518Z,6.90
2023-11-25T00:26:05.204Z,8.50
2023-11-25T00:27:12.116Z,8.40
2023-11-25T00:28:18.752Z,6.90
2023-11-25T00:29:26.655Z,8.80
2023-11-25T00:30:35.382Z,6.90
2023-11-25T00:31:42.859Z,9.00
2023-11-25T00:32:50.877Z,6.60
2023-11-25T00:33:57.514Z,8.20
2023-11-25T00:35:07.661Z,8.20
2023-11-25T00:36:14.350Z,6.50
2023-11-25T00:37:22.191Z,6.80
2023-11-25T00:38:29.762Z,6.00
2023-11-25T00:39:36.628Z,5.80
2023-11-25T00:40:43.030Z,7.10
2023-11-25T00:41:49.828Z,9.20
2023-11-25T00:42:56.226Z,7.70
2023-11-25T00:44:04.550Z,7.40
2023-11-25T00:45:12.570Z,5.20
2023-11-25T00:46:19.190Z,8.40
2023-11-25T00:47:25.510Z,6.30
2023-11-25T00:48:32.649Z,6.40
2023-11-25T00:49:40.017Z,7.60
2023-11-25T00:50:47.008Z,8.40
2023-11-25T00:51:53.672Z,7.30
2023-11-25T00:53:01.006Z,9.10
2023-11-25T00:54:09.432Z,6.10
2023-11-25T00:55:16.116Z,9.70
2023-11-25T00:56:23.038Z,10.30
2023-11-25T00:57:29.777Z,10.10
2023-11-25T00:58:36.394Z,7.10
2023-11-25T00:59:44.949Z,8.40
2023-11-25T01:00:53.779Z,8.30
2023-11-25T01:02:00.937Z,8.80
2023-11-25T01:03:08.158Z,9.10
2023-11-25T01:04:14.745Z,7.70
2023-11-25T01:05:21.026Z,7.60
2023-11-25T01:06:28.523Z,9.70
2023-11-25T01:07:35.060Z,8.30
2023-11-25T01:08:42.764Z,9.30
2023-11-25T01:09:50.680Z,9.30
2023-11-25T01:10:57.129Z,8.80
2023-11-25T01:12:05.450Z,7.50
2023-11-25T01:13:12.027Z,7.30
2023-11-25T01:14:19.242Z,8.40
2023-11-25T01:15:26.617Z,8.90
2023-11-25T01:16:34.671Z,7.00
2023-11-25T01:17:41.773Z,7.20
2023-11-25T01:18:48.790Z,8.40
2023-11-25T01:19:55.421Z,7.10
2023-11-25T01:21:02.012Z,7.20
2023-11-25T01:22:08.957Z,8.20
2023-11-25T01:23:19.019Z,8.00
2023-11-25T01:24:25.512Z,8.00
2023-11-25T01:25:32.686Z,8.80
2023-11-25T01:26:39.659Z,7.80
2023-11-25T01:27:46.147Z,8.10
2023-11-25T01:28:53.806Z,8.00
2023-11-25T01:30:01.636Z,7.50
2023-11-25T01:31:11.417Z,8.20
2023-11-25T01:32:18.754Z,7.80
2023-11-25T01:33:26.968Z,8.50
2023-11-25T01:34:34.038Z,9.00
2023-11-25T01:35:41.095Z,8.40
2023-11-25T01:36:47.331Z,7.50
2023-11-25T01:37:53.815Z,11.40
2023-11-25T01:39:00.670Z,9.10
2023-11-25T01:40:13.059Z,11.70
2023-11-25T01:41:19.842Z,9.50
2023-11-25T01:42:26.961Z,8.10
2023-11-25T01:43:33.453Z,9.00
2023-11-25T01:44:39.949Z,8.00
2023-11-25T01:45:52.243Z,7.50
2023-11-25T01:46:59.127Z,7.40
2023-11-25T01:48:08.357Z,9.30
2023-11-25T01:49:17.309Z,6.70
2023-11-25T01:51:29.584Z,11.70
2023-11-25T01:52:39.661Z,6.50
2023-11-25T01:53:47.778Z,7.10
2023-11-25T01:54:54.500Z,9.70
2023-11-25T01:56:02.155Z,7.50
2023-11-25T01:57:10.125Z,7.30
2023-11-25T01:58:19.574Z,8.30
2023-11-25T01:59:29.312Z,8.10
2023-11-25T02:00:41.379Z,7.00
2023-11-25T02:01:48.284Z,8.80
2023-11-25T02:02:56.809Z,7.60
2023-11-25T02:04:03.178Z,9.00
2023-11-25T02:05:11.664Z,7.60
2023-11-25T02:06:19.127Z,8.10
2023-11-25T02:07:25.714Z,8.70
2023-11-25T02:08:33.736Z,8.00
2023-11-25T02:09:42.859Z,8.80
2023-11-25T02:11:58.786Z,7.80
2023-11-25T02:13:09.953Z,9.70
2023-11-25T02:14:16.690Z,8.70
2023-11-25T02:15:24.100Z,8.90
2023-11-25T02:16:30.613Z,8.40
2023-11-25T02:17:37.778Z,8.90
2023-11-25T02:18:45.274Z,9.20
2023-11-25T02:19:55.961Z,8.40
2023-11-25T02:21:03.535Z,9.40
2023-11-25T02:22:13.482Z,8.30
2023-11-25T02:23:23.661Z,7.30
2023-11-25T02:24:31.587Z,9.00
2023-11-25T02:25:39.305Z,9.10
2023-11-25T02:26:46.143Z,8.80
2023-11-25T02:27:52.824Z,8.90
2023-11-25T02:28:59.547Z,7.80
2023-11-25T02:30:08.305Z,8.50
2023-11-25T02:32:21.656Z,7.40
2023-11-25T02:33:36.323Z,8.30
2023-11-25T02:34:42.720Z,8.00
2023-11-25T02:35:49.329Z,8.20
2023-11-25T02:36:55.671Z,8.50
2023-11-25T02:38:02.218Z,9.20
2023-11-25T02:39:11.274Z,8.20
2023-11-25T02:41:26.783Z,7.80
2023-11-25T02:42:33.612Z,8.70
2023-11-25T02:43:40.360Z,8.70
2023-11-25T02:44:47.900Z,7.10
2023-11-25T02:45:54.893Z,6.90
2023-11-25T02:47:01.866Z,8.90
2023-11-25T02:48:11.942Z,7.70
2023-11-25T02:49:19.218Z,8.10
2023-11-25T02:50:26.178Z,7.70
2023-11-25T02:51:35.372Z,7.90
2023-11-25T02:52:42.296Z,8.10
2023-11-25T02:53:50.730Z,9.30
2023-11-25T02:54:57.456Z,7.70
2023-11-25T02:56:04.356Z,7.80
2023-11-25T02:57:13.485Z,8.50
2023-11-25T02:59:25.663Z,8.50
2023-11-25T03:00:38.342Z,7.10
2023-11-25T03:01:55.722Z,10.00
2023-11-25T03:03:18.718Z,8.50
2023-11-25T03:04:28.608Z,10.60
2023-11-25T03:05:35.211Z,8.50
2023-11-25T03:06:43.185Z,10.30
2023-11-25T03:07:51.660Z,8.30
2023-11-25T03:08:59.045Z,8.90
2023-11-25T03:10:07.753Z,7.90
2023-11-25T03:11:19.305Z,8.20
2023-11-25T03:12:26.047Z,9.50
2023-11-25T03:13:33.412Z,9.90
2023-11-25T03:14:40.316Z,7.00
2023-11-25T03:15:46.955Z,9.40
2023-11-25T03:16:57.354Z,8.00
2023-11-25T03:18:04.020Z,7.60
2023-11-25T03:19:12.834Z,8.20
2023-11-25T03:20:19.907Z,7.90
2023-11-25T03:21:26.548Z,6.00
2023-11-25T03:22:32.926Z,6.80
2023-11-25T03:23:39.916Z,9.00
2023-11-25T03:24:47.094Z,10.70
2023-11-25T03:25:53.918Z,12.00
2023-11-25T03:27:00.687Z,9.60
2023-11-25T03:28:10.281Z,19.10
2023-11-25T03:29:19.880Z,8.10
2023-11-25T03:30:29.180Z,11.00
2023-11-25T03:31:35.740Z,10.40
2023-11-25T03:32:43.143Z,9.50
2023-11-25T03:33:49.867Z,12.20
2023-11-25T03:34:58.528Z,10.60
2023-11-25T03:36:09.642Z,12.60
2023-11-25T03:37:16.416Z,9.80
2023-11-25T03:38:24.840Z,11.10
2023-11-25T03:39:32.666Z,10.10
2023-11-25T03:40:39.277Z,10.40
2023-11-25T03:41:46.650Z,12.40
2023-11-25T03:42:53.000Z,9.60
2023-11-25T03:44:02.236Z,10.10
2023-11-25T03:45:10.773Z,11.70
2023-11-25T03:47:24.554Z,12.70
2023-11-25T03:48:33.829Z,12.40
2023-11-25T03:49:40.580Z,11.80
2023-11-25T03:50:47.634Z,13.30
2023-11-25T03:51:54.114Z,12.00
2023-11-25T03:53:00.837Z,11.30
2023-11-25T03:54:07.623Z,12.00
2023-11-25T03:55:15.247Z,11.40
2023-11-25T03:56:22.604Z,12.50
2023-11-25T03:57:29.169Z,9.40
2023-11-25T03:58:37.295Z,10.10
2023-11-25T03:59:44.251Z,10.00
2023-11-25T04:00:51.099Z,10.60
2023-11-25T04:01:57.972Z,11.10
2023-11-25T04:03:05.846Z,10.40
2023-11-25T04:04:13.687Z,11.00
2023-11-25T04:05:20.977Z,10.90
2023-11-25T04:06:27.723Z,8.80
2023-11-25T04:07:34.563Z,12.50
2023-11-25T04:08:41.519Z,11.80
2023-11-25T04:09:48.383Z,12.00
2023-11-25T04:10:55.272Z,11.60
2023-11-25T04:12:02.410Z,12.80
2023-11-25T04:13:08.807Z,10.30
2023-11-25T04:14:16.545Z,11.30
2023-11-25T04:15:23.751Z,15.40
2023-11-25T04:16:30.254Z,12.30
2023-11-25T04:17:37.865Z,12.60
2023-11-25T04:18:44.324Z,10.80
2023-11-25T04:19:50.918Z,9.70
2023-11-25T04:20:57.718Z,12.10
2023-11-25T04:22:05.548Z,11.30
2023-11-25T04:23:14.403Z,11.30
2023-11-25T04:24:24.012Z,10.90
2023-11-25T04:25:30.320Z,11.20
2023-11-25T04:26:38.708Z,11.20
2023-11-25T04:27:50.972Z,13.40
2023-11-25T04:28:57.650Z,10.00
2023-11-25T04:30:04.311Z,10.90
2023-11-25T04:31:10.841Z,9.60
2023-11-25T04:32:17.662Z,10.10
2023-11-25T04:33:26.236Z,10.20
2023-11-25T04:34:32.871Z,11.20
2023-11-25T04:35:39.534Z,11.10
2023-11-25T04:36:46.556Z,10.90
2023-11-25T04:37:53.793Z,11.40
2023-11-25T04:39:00.511Z,9.00
2023-11-25T04:40:12.928Z,10.10
2023-11-25T04:41:19.563Z,10.60
2023-11-25T04:42:27.291Z,10.50
2023-11-25T04:43:33.943Z,11.10
2023-11-25T04:44:41.944Z,9.40
2023-11-25T04:45:49.745Z,8.70
2023-11-25T04:46:56.185Z,10.80
2023-11-25T04:48:05.306Z,12.40
2023-11-25T04:49:12.337Z,12.20
2023-11-25T04:50:22.550Z,12.60
2023-11-25T04:51:32.688Z,10.50
2023-11-25T04:52:39.397Z,10.50
2023-11-25T04:53:45.925Z,11.70
2023-11-25T04:54:52.862Z,11.20
2023-11-25T04:55:59.386Z,9.40
2023-11-25T04:57:08.411Z,9.70
2023-11-25T04:58:16.916Z,10.60
2023-11-25T04:59:26.572Z,9.50
2023-11-25T05:00:33.241Z,10.00
2023-11-25T05:01:40.633Z,11.70
2023-11-25T05:02:49.398Z,10.60
2023-11-25T05:03:55.950Z,7.70
2023-11-25T05:05:02.405Z,9.70
2023-11-25T05:06:15.077Z,9.30
2023-11-25T05:07:22.900Z,10.10
2023-11-25T05:08:31.051Z,10.00
2023-11-25T05:09:39.569Z,11.10
2023-11-25T05:10:46.766Z,9.90
2023-11-25T05:11:55.846Z,10.00
2023-11-25T05:13:03.571Z,9.50
2023-11-25T05:14:09.984Z,9.20
2023-11-25T05:15:17.094Z,10.90
2023-11-25T05:16:23.635Z,11.90
2023-11-25T05:17:30.751Z,9.80
2023-11-25T05:18:38.409Z,11.20
2023-11-25T05:19:45.762Z,10.60
2023-11-25T05:20:53.145Z,11.10
2023-11-25T05:21:59.815Z,10.80
2023-11-25T05:23:07.853Z,11.40
2023-11-25T05:24:15.379Z,11.30
2023-11-25T05:25:23.852Z,11.10
2023-11-25T05:26:31.848Z,10.50
2023-11-25T05:27:38.188Z,11.70
2023-11-25T05:28:44.742Z,11.20
2023-11-25T05:29:51.663Z,12.50
2023-11-25T05:30:58.080Z,10.90
2023-11-25T05:32:05.722Z,12.10
2023-11-25T05:33:12.175Z,12.70
2023-11-25T05:34:18.800Z,14.10
2023-11-25T05:35:25.514Z,14.10
2023-11-25T05:36:34.489Z,12.60
2023-11-25T05:37:42.770Z,14.20
2023-11-25T05:38:51.139Z,12.30
2023-11-25T05:39:57.585Z,10.60
2023-11-25T05:41:05.788Z,9.90
2023-11-25T05:42:15.334Z,13.20
2023-11-25T05:43:25.347Z,12.30
2023-11-25T05:44:34.158Z,13.00
2023-11-25T05:46:49.256Z,10.80
2023-11-25T05:47:55.908Z,14.30
2023-11-25T05:49:06.328Z,12.50
2023-11-25T05:50:13.510Z,11.00
2023-11-25T05:51:21.644Z,13.00
2023-11-25T05:52:28.182Z,12.00
2023-11-25T05:53:36.390Z,10.80
2023-11-25T05:54:45.129Z,11.90
2023-11-25T05:55:51.475Z,11.10
2023-11-25T05:56:57.899Z,12.20
2023-11-25T05:58:04.554Z,13.60
2023-11-25T05:59:11.322Z,12.60
2023-11-25T06:00:25.262Z,12.30
2023-11-25T06:01:34.252Z,11.50
2023-11-25T06:02:43.388Z,11.00
2023-11-25T06:03:54.420Z,11.30
2023-11-25T06:05:01.330Z,9.80
2023-11-25T06:06:09.978Z,8.60
2023-11-25T06:07:16.731Z,8.40
2023-11-25T06:08:23.315Z,9.30
2023-11-25T06:09:29.859Z,9.40
2023-11-25T06:10:36.197Z,11.10
2023-11-25T06:11:42.788Z,10.50
2023-11-25T06:12:49.108Z,8.90
2023-11-25T06:13:58.456Z,10.00
2023-11-25T06:15:06.916Z,12.30
2023-11-25T06:16:14.468Z,9.90
2023-11-25T06:17:25.269Z,10.90
2023-11-25T06:18:32.459Z,12.80
2023-11-25T06:19:39.948Z,12.20
2023-11-25T06:20:47.937Z,9.60
2023-11-25T06:21:55.933Z,11.20
2023-11-25T06:23:02.882Z,9.40
2023-11-25T06:24:10.900Z,8.60
2023-11-25T06:25:18.306Z,13.00
2023-11-25T06:26:25.144Z,11.30
2023-11-25T06:27:31.874Z,11.10
2023-11-25T06:28:43.133Z,10.30
2023-11-25T06:29:51.157Z,11.30
2023-11-25T06:30:58.156Z,11.00
2023-11-25T06:32:04.955Z,11.50
2023-11-25T06:33:11.729Z,14.50
2023-11-25T06:34:18.570Z,10.10
2023-11-25T06:35:27.041Z,10.50
2023-11-25T06:36:33.420Z,9.20
2023-11-25T06:37:42.245Z,12.00
2023-11-25T06:39:53.444Z,9.10
2023-11-25T06:40:59.972Z,9.00
2023-11-25T06:42:10.352Z,10.20
2023-11-25T06:43:16.964Z,12.00
2023-11-25T06:44:24.352Z,12.40
2023-11-25T06:45:31.599Z,12.80
2023-11-25T06:46:37.923Z,10.90
2023-11-25T06:47:44.731Z,11.50
2023-11-25T06:48:53.927Z,12.80
2023-11-25T06:50:02.816Z,10.20
2023-11-25T06:51:12.926Z,10.70
2023-11-25T06:52:19.577Z,9.80
2023-11-25T06:53:25.993Z,9.80
2023-11-25T06:54:34.238Z,11.00
2023-11-25T06:55:42.817Z,9.40
2023-11-25T06:56:49.621Z,12.90
2023-11-25T06:57:55.866Z,8.80
2023-11-25T06:59:02.328Z,11.50
2023-11-25T07:00:13.061Z,10.80
2023-11-25T07:01:23.470Z,10.70
2023-11-25T07:02:31.171Z,10.90
2023-11-25T07:03:37.911Z,10.90
2023-11-25T07:04:44.670Z,10.30
2023-11-25T07:05:51.659Z,11.40
2023-11-25T07:06:58.368Z,12.40
2023-11-25T07:08:06.521Z,15.60
2023-11-25T07:09:16.499Z,9.40
2023-11-25T07:10:22.989Z,11.70
2023-11-25T07:11:32.620Z,12.70
2023-11-25T07:12:39.437Z,10.00
2023-11-25T07:13:46.473Z,12.20
2023-11-25T07:14:53.730Z,12.40
2023-11-25T07:16:02.727Z,9.70
2023-11-25T07:17:13.334Z,9.90
2023-11-25T07:18:21.132Z,9.70
2023-11-25T07:19:28.364Z,8.90
2023-11-25T07:20:35.021Z,12.00
2023-11-25T07:21:41.371Z,10.40
2023-11-25T07:22:48.695Z,9.70
2023-11-25T07:23:57.465Z,12.00
2023-11-25T07:25:03.866Z,11.40
2023-11-25T07:26:13.908Z,10.70
2023-11-25T07:27:20.518Z,12.60
2023-11-25T07:28:27.912Z,11.60
2023-11-25T07:29:36.458Z,11.70
2023-11-25T07:30:43.425Z,13.20
2023-11-25T07:31:50.560Z,14.40
2023-11-25T07:32:58.053Z,14.90
2023-11-25T07:34:07.462Z,13.90
2023-11-25T07:35:14.154Z,14.40
2023-11-25T07:36:21.446Z,13.80
2023-11-25T07:37:28.676Z,15.10
2023-11-25T07:38:35.212Z,11.30
2023-11-25T07:39:41.913Z,12.80
2023-11-25T07:40:48.575Z,13.80
2023-11-25T07:41:55.622Z,14.20
2023-11-25T07:43:02.703Z,13.00
2023-11-25T07:44:09.499Z,10.90
2023-11-25T07:45:17.990Z,12.80
2023-11-25T07:46:25.121Z,11.70
2023-11-25T07:47:32.182Z,14.20
2023-11-25T07:48:39.391Z,11.50
2023-11-25T07:49:47.105Z,13.60
2023-11-25T07:50:53.746Z,13.40
2023-11-25T07:52:00.351Z,12.20
2023-11-25T07:53:08.495Z,15.20
2023-11-25T07:54:15.385Z,13.60
2023-11-25T07:55:22.566Z,14.90
2023-11-25T07:56:29.633Z,11.60
2023-11-25T07:57:36.133Z,9.70
2023-11-25T07:58:42.862Z,12.20
2023-11-25T07:59:50.954Z,11.80
2023-11-25T08:00:59.639Z,14.20
2023-11-25T08:02:07.061Z,10.70
2023-11-25T08:03:14.289Z,12.10
2023-11-25T08:04:20.837Z,10.90
2023-11-25T08:05:27.750Z,12.70
2023-11-25T08:06:34.098Z,9.60
2023-11-25T08:07:41.655Z,11.60
2023-11-25T08:08:47.964Z,11.90
2023-11-25T08:09:54.209Z,12.50
2023-11-25T08:11:00.753Z,10.10
2023-11-25T08:12:09.851Z,11.60
2023-11-25T08:13:19.589Z,12.10
2023-11-25T08:14:26.973Z,15.50
2023-11-25T08:15:34.452Z,12.90
2023-11-25T08:16:41.220Z,14.60
2023-11-25T08:17:47.896Z,15.40
2023-11-25T08:18:54.801Z,14.50
2023-11-25T08:20:01.675Z,12.30
2023-11-25T08:21:08.888Z,15.20
2023-11-25T08:22:16.199Z,13.70
2023-11-25T08:23:23.035Z,13.60
2023-11-25T08:24:30.110Z,16.10
2023-11-25T08:25:36.857Z,17.40
2023-11-25T08:26:43.294Z,16.80
2023-11-25T08:27:53.144Z,17.50
2023-11-25T08:29:00.633Z,16.30
2023-11-25T08:30:12.875Z,17.30
2023-11-25T08:31:20.050Z,18.80
2023-11-25T08:32:26.800Z,14.60
2023-11-25T08:33:35.389Z,16.40
2023-11-25T08:34:42.018Z,15.80
2023-11-25T08:35:50.213Z,19.20
2023-11-25T08:36:56.732Z,17.40
2023-11-25T08:38:03.274Z,16.20
2023-11-25T08:39:10.543Z,16.30
2023-11-25T08:40:18.467Z,17.70
2023-11-25T08:41:27.254Z,15.70
2023-11-25T08:42:33.842Z,20.60
2023-11-25T08:43:44.788Z,16.40
2023-11-25T08:44:52.468Z,16.90
2023-11-25T08:46:01.434Z,16.10
2023-11-25T08:47:08.354Z,14.70
2023-11-25T08:48:16.066Z,17.60
2023-11-25T08:49:23.670Z,16.40
2023-11-25T08:50:30.515Z,16.80
2023-11-25T08:51:36.955Z,16.20
2023-11-25T08:52:45.839Z,18.40
2023-11-25T08:53:52.426Z,14.60
2023-11-25T08:54:58.908Z,12.70
2023-11-25T08:56:08.136Z,14.70
2023-11-25T08:57:16.334Z,13.60
2023-11-25T08:58:27.403Z,15.00
2023-11-25T08:59:34.415Z,11.60
2023-11-25T09:00:41.434Z,12.10
2023-11-25T09:01:50.332Z,11.90
2023-11-25T09:02:58.812Z,10.80
2023-11-25T09:04:08.047Z,16.30
2023-11-25T09:05:16.351Z,14.70
2023-11-25T09:06:24.892Z,14.00
2023-11-25T09:07:33.599Z,14.10
2023-11-25T09:08:41.921Z,14.20
2023-11-25T09:09:51.125Z,13.50
2023-11-25T09:10:59.005Z,17.20
2023-11-25T09:12:09.811Z,13.80
2023-11-25T09:13:16.723Z,12.80
2023-11-25T09:14:23.307Z,13.80
2023-11-25T09:15:31.058Z,12.90
2023-11-25T09:16:40.257Z,12.70
2023-11-25T09:17:47.031Z,10.90
2023-11-25T09:18:56.398Z,12.90
2023-11-25T09:20:05.836Z,10.90
2023-11-25T09:21:12.263Z,9.50
2023-11-25T09:22:18.927Z,7.70
2023-11-25T09:23:25.950Z,9.50
2023-11-25T09:24:32.560Z,8.60
2023-11-25T09:25:39.301Z,6.50
2023-11-25T09:26:48.281Z,7.70
2023-11-25T09:27:54.990Z,9.50
2023-11-25T09:29:02.132Z,8.90
2023-11-25T09:30:13.216Z,9.80
2023-11-25T09:31:20.483Z,7.30
2023-11-25T09:32:29.075Z,8.40
2023-11-25T09:33:37.595Z,8.30
2023-11-25T09:34:45.410Z,6.50
2023-11-25T09:35:52.217Z,7.30
2023-11-25T09:36:58.784Z,6.90
2023-11-25T09:38:05.585Z,7.50
2023-11-25T09:39:13.225Z,6.40
2023-11-25T09:40:21.257Z,5.80
2023-11-25T09:41:32.226Z,5.60
2023-11-25T09:42:39.222Z,7.20
2023-11-25T09:43:46.474Z,6.60
2023-11-25T09:44:54.142Z,7.80
2023-11-25T09:46:01.985Z,6.40
2023-11-25T09:47:09.374Z,6.30
2023-11-25T09:48:15.922Z,5.70
2023-11-25T09:49:23.319Z,5.90
2023-11-25T09:50:29.807Z,6.60
2023-11-25T09:51:37.902Z,6.10
2023-11-25T09:52:51.504Z,6.90
2023-11-25T09:54:03.726Z,6.90
2023-11-25T09:55:11.237Z,6.20
2023-11-25T09:56:19.872Z,6.50
2023-11-25T09:57:34.305Z,5.50
2023-11-25T09:58:40.828Z,8.90
2023-11-25T09:59:48.155Z,6.70
2023-11-25T10:00:57.397Z,6.10
2023-11-25T10:02:07.944Z,6.20
2023-11-25T10:03:16.523Z,6.40
2023-11-25T10:04:29.008Z,9.40
2023-11-25T10:05:37.440Z,7.40
2023-11-25T10:06:43.956Z,9.40
2023-11-25T10:07:51.157Z,6.60
2023-11-25T10:08:57.768Z,8.80
2023-11-25T10:10:06.267Z,9.30
2023-11-25T10:11:16.484Z,7.00
2023-11-25T10:12:22.953Z,6.30
2023-11-25T10:13:33.777Z,7.20
2023-11-25T10:14:44.546Z,6.40
2023-11-25T10:15:52.592Z,7.80
2023-11-25T10:16:59.019Z,6.90
2023-11-25T10:18:07.989Z,6.20
2023-11-25T10:19:24.380Z,7.50
2023-11-25T10:20:32.341Z,8.90
2023-11-25T10:21:39.829Z,7.40
2023-11-25T10:22:50.188Z,6.80
2023-11-25T10:24:07.123Z,6.50
2023-11-25T10:25:14.018Z,5.10
2023-11-25T10:26:22.426Z,6.10
2023-11-25T10:27:29.216Z,6.70
2023-11-25T10:28:38.262Z,5.50
2023-11-25T10:30:57.824Z,6.30
2023-11-25T10:32:05.426Z,6.20
2023-11-25T10:33:13.295Z,5.60
2023-11-25T10:34:22.530Z,5.80
2023-11-25T10:36:35.228Z,5.80
2023-11-25T10:37:42.213Z,5.30
2023-11-25T10:38:50.404Z,6.00
2023-11-25T10:39:57.013Z,5.60
2023-11-25T10:41:07.124Z,7.40
2023-11-25T10:42:14.871Z,5.70
2023-11-25T10:43:23.579Z,6.60
2023-11-25T10:44:31.706Z,7.30
2023-11-25T10:45:39.109Z,6.10
2023-11-25T10:46:45.866Z,6.30
2023-11-25T10:47:52.907Z,6.00
2023-11-25T10:49:01.841Z,4.80
2023-11-25T10:50:09.895Z,5.60
2023-11-25T10:51:17.613Z,4.40
2023-11-25T10:52:25.185Z,7.20
2023-11-25T10:53:32.095Z,6.40
2023-11-25T10:54:39.551Z,5.30
2023-11-25T10:55:47.975Z,5.40
2023-11-25T10:56:57.750Z,5.60
2023-11-25T10:58:06.533Z,4.90
2023-11-25T10:59:16.513Z,5.00
2023-11-25T11:00:23.716Z,5.40
2023-11-25T11:01:34.375Z,5.40
2023-11-25T11:02:48.750Z,6.90
2023-11-25T11:04:04.188Z,6.30
2023-11-25T11:06:21.589Z,4.30
2023-11-25T11:07:32.029Z,4.90
2023-11-25T11:08:44.140Z,5.50
2023-11-25T11:09:56.259Z,4.90
2023-11-25T11:11:08.725Z,5.60
2023-11-25T11:12:25.329Z,4.80
2023-11-25T11:13:39.344Z,5.80
2023-11-25T11:14:56.002Z,5.70
2023-11-25T11:16:08.163Z,5.40
2023-11-25T11:17:30.045Z,7.30
2023-11-25T11:18:40.678Z,5.70
2023-11-25T11:19:52.376Z,5.90
2023-11-25T11:21:02.222Z,4.70
2023-11-25T11:22:12.391Z,6.60
2023-11-25T11:23:21.077Z,4.50
2023-11-25T11:24:34.630Z,4.40
2023-11-25T11:25:49.805Z,6.20
2023-11-25T11:27:06.497Z,4.10
2023-11-25T11:28:24.531Z,3.50
2023-11-25T11:29:38.286Z,4.10
2023-11-25T11:31:04.211Z,6.00
2023-11-25T11:32:14.898Z,5.20
2023-11-25T11:33:22.010Z,4.00
2023-11-25T11:34:30.776Z,3.40
2023-11-25T11:35:41.364Z,4.60
2023-11-25T11:36:47.970Z,4.40
2023-11-25T11:37:58.889Z,5.10
2023-11-25T11:39:10.261Z,3.50
2023-11-25T11:40:21.785Z,4.10
2023-11-25T11:41:31.926Z,4.30
2023-11-25T11:42:41.065Z,3.80
2023-11-25T11:45:15.900Z,4.70
2023-11-25T11:46:22.222Z,3.70
2023-11-25T11:47:29.117Z,4.40
2023-11-25T11:48:35.950Z,3.30
2023-11-25T11:49:42.722Z,4.00
2023-11-25T11:50:56.314Z,4.60
2023-11-25T11:52:06.751Z,4.60
2023-11-25T11:53:17.687Z,5.50
2023-11-25T11:54:29.697Z,4.00
2023-11-25T11:55:40.651Z,3.10
2023-11-25T11:57:03.894Z,4.10
2023-11-25T11:58:12.560Z,5.80
2023-11-25T11:59:19.599Z,6.80
2023-11-25T12:00:28.995Z,3.90
2023-11-25T12:01:36.245Z,3.70
2023-11-25T12:02:44.473Z,3.80
2023-11-25T12:03:53.243Z,4.40
2023-11-25T12:05:02.216Z,4.50
2023-11-25T12:06:16.450Z,3.20
2023-11-25T12:07:23.318Z,2.30
2023-11-25T12:08:32.427Z,4.40
2023-11-25T12:09:39.081Z,3.40
2023-11-25T12:10:45.717Z,3.30
2023-11-25T12:12:02.424Z,3.90
2023-11-25T12:13:13.423Z,3.40
2023-11-25T12:14:20.030Z,3.60
2023-11-25T12:15:26.692Z,3.80
2023-11-25T12:16:34.663Z,6.00
2023-11-25T12:17:43.841Z,5.20
2023-11-25T12:18:51.025Z,5.60
2023-11-25T12:19:58.985Z,5.10
2023-11-25T12:21:07.170Z,3.80
2023-11-25T12:22:14.191Z,3.70
2023-11-25T12:23:20.587Z,4.30
2023-11-25T12:24:27.929Z,5.50
2023-11-25T12:25:35.475Z,4.60
2023-11-25T12:26:51.788Z,6.40
2023-11-25T12:28:06.052Z,6.70
2023-11-25T12:29:17.780Z,4.00
2023-11-25T12:30:26.268Z,6.70
2023-11-25T12:31:34.366Z,4.50
2023-11-25T12:32:42.153Z,4.00
2023-11-25T12:33:49.810Z,5.20
2023-11-25T12:34:56.645Z,4.50
2023-11-25T12:36:04.091Z,4.40
2023-11-25T12:37:14.123Z,5.60
2023-11-25T12:38:22.946Z,3.70
2023-11-25T12:39:30.078Z,4.10
2023-11-25T12:40:37.911Z,4.60
2023-11-25T12:41:44.769Z,3.80
2023-11-25T12:42:53.674Z,5.00
2023-11-25T12:44:11.888Z,4.50
2023-11-25T12:45:41.805Z,4.10
2023-11-25T12:47:05.933Z,4.00
2023-11-25T12:48:17.583Z,4.90
2023-11-25T12:49:27.905Z,5.10
2023-11-25T12:50:36.436Z,4.70
2023-11-25T12:51:46.860Z,5.90
2023-11-25T12:53:09.024Z,4.30
2023-11-25T12:54:15.647Z,4.60
2023-11-25T12:55:36.379Z,4.80
2023-11-25T12:56:44.640Z,4.60
2023-11-25T12:57:51.613Z,6.00
2023-11-25T12:58:57.942Z,4.70
2023-11-25T13:00:12.340Z,5.00
2023-11-25T13:01:26.848Z,5.10
2023-11-25T13:02:35.259Z,4.60
2023-11-25T13:03:42.522Z,4.60
2023-11-25T13:04:51.954Z,4.80
2023-11-25T13:06:05.694Z,3.60
2023-11-25T13:07:31.756Z,4.70
2023-11-25T13:08:46.676Z,7.30
2023-11-25T13:09:52.952Z,5.00
2023-11-25T13:11:01.960Z,5.00
2023-11-25T13:12:09.884Z,7.20
2023-11-25T13:13:18.014Z,6.30
2023-11-25T13:14:25.390Z,7.50
2023-11-25T13:15:31.917Z,5.30
2023-11-25T13:16:39.855Z,5.20
2023-11-25T13:17:49.801Z,6.90
2023-11-25T13:18:59.089Z,7.70
2023-11-25T13:20:12.155Z,5.70
2023-11-25T13:21:20.157Z,6.90
2023-11-25T13:22:26.595Z,8.10
2023-11-25T13:23:34.619Z,5.40
2023-11-25T13:24:41.133Z,5.10
2023-11-25T13:25:47.855Z,6.50
2023-11-25T13:26:54.889Z,5.80
2023-11-25T13:28:01.438Z,4.90
2023-11-25T13:29:09.528Z,8.30
2023-11-25T13:30:17.237Z,5.80
2023-11-25T13:31:25.254Z,8.40
2023-11-25T13:32:32.569Z,33.50
2023-11-25T13:33:39.375Z,12.00
2023-11-25T13:34:46.361Z,9.30
2023-11-25T13:35:53.796Z,7.60
2023-11-25T13:37:00.230Z,9.00
2023-11-25T13:38:10.517Z,7.30
2023-11-25T13:39:21.110Z,9.00
2023-11-25T13:40:34.972Z,7.80
2023-11-25T13:41:41.693Z,9.10
2023-11-25T13:42:48.734Z,7.30
2023-11-25T13:43:56.094Z,7.70
2023-11-25T13:45:04.201Z,8.20
2023-11-25T13:46:10.994Z,7.20
2023-11-25T13:47:17.967Z,10.20
2023-11-25T13:48:24.707Z,9.10
2023-11-25T13:49:31.316Z,8.40
2023-11-25T13:50:39.143Z,9.40
2023-11-25T13:51:46.852Z,9.90
2023-11-25T13:52:54.983Z,11.10
2023-11-25T13:54:02.668Z,12.40
2023-11-25T13:55:13.732Z,8.50
2023-11-25T13:56:21.575Z,6.60
2023-11-25T13:57:27.902Z,6.30
2023-11-25T13:58:34.319Z,7.00
2023-11-25T13:59:41.840Z,8.00
2023-11-25T14:00:48.468Z,8.90
2023-11-25T14:01:56.554Z,6.40
2023-11-25T14:03:08.845Z,5.60
2023-11-25T14:04:15.892Z,6.50
2023-11-25T14:05:23.176Z,6.00
2023-11-25T14:06:31.486Z,6.80
2023-11-25T14:07:41.133Z,6.20
2023-11-25T14:08:48.634Z,5.10
2023-11-25T14:09:56.049Z,5.00
2023-11-25T14:11:03.944Z,5.90
2023-11-25T14:12:11.661Z,6.50
2023-11-25T14:13:19.982Z,5.80
2023-11-25T14:14:27.934Z,5.80
2023-11-25T14:15:35.142Z,7.70
2023-11-25T14:16:48.738Z,5.80
2023-11-25T14:17:57.511Z,4.70
2023-11-25T14:19:05.164Z,5.10
2023-11-25T14:20:17.139Z,5.30
2023-11-25T14:21:24.198Z,6.40
2023-11-25T14:22:30.502Z,4.70
2023-11-25T14:23:37.220Z,4.90
2023-11-25T14:24:44.358Z,4.80
2023-11-25T14:25:51.115Z,6.60
2023-11-25T14:26:57.892Z,3.90
2023-11-25T14:28:04.998Z,5.60
2023-11-25T14:29:11.664Z,5.90
2023-11-25T14:30:20.487Z,4.50
2023-11-25T14:31:28.010Z,5.10
2023-11-25T14:32:35.325Z,5.10
2023-11-25T14:33:41.931Z,8.50
2023-11-25T14:34:48.544Z,6.50
2023-11-25T14:35:56.411Z,5.60
2023-11-25T14:37:05.222Z,5.20
2023-11-25T14:38:12.604Z,5.50
2023-11-25T14:39:20.286Z,5.00
2023-11-25T14:40:26.735Z,4.80
2023-11-25T14:41:33.773Z,5.00
2023-11-25T14:42:40.749Z,4.80
2023-11-25T14:43:47.730Z,5.10
2023-11-25T14:44:56.851Z,5.50
2023-11-25T14:46:03.353Z,23.30
2023-11-25T14:47:11.955Z,20.70
2023-11-25T14:48:19.807Z,9.10
2023-11-25T14:49:26.522Z,5.70
2023-11-25T14:50:37.627Z,8.90
2023-11-25T14:51:44.497Z,9.10
2023-11-25T14:52:51.625Z,7.60
2023-11-25T14:53:57.985Z,7.40
2023-11-25T14:55:04.875Z,9.80
2023-11-25T14:56:12.034Z,7.60
2023-11-25T14:57:18.951Z,7.20
2023-11-25T14:58:26.283Z,8.80
2023-11-25T14:59:32.866Z,6.20
2023-11-25T15:00:42.264Z,7.40
2023-11-25T15:01:50.819Z,7.60
2023-11-25T15:03:01.002Z,13.00
2023-11-25T15:04:09.862Z,7.80
2023-11-25T15:05:18.048Z,8.00
2023-11-25T15:06:25.335Z,9.30
2023-11-25T15:07:32.053Z,8.20
2023-11-25T15:08:39.700Z,8.50
2023-11-25T15:09:46.783Z,7.70
2023-11-25T15:10:53.194Z,7.20
2023-11-25T15:12:00.341Z,9.10
2023-11-25T15:13:08.210Z,8.40